createdAt,value
2022-11-24T00:00:39.092Z,27.67
2022-11-24T00:03:43.225Z,31.97
2022-11-24T00:06:46.949Z,30.43
2022-11-24T00:09:50.709Z,33.40
2022-11-24T00:12:54.400Z,34.90
2022-11-24T00:16:08.348Z,43.10
2022-11-24T00:19:15.885Z,36.03
2022-11-24T00:22:22.198Z,39.70
2022-11-24T00:25:25.885Z,35.27
2022-11-24T00:28:29.629Z,38.50
2022-11-24T00:31:36.764Z,37.00
2022-11-24T00:34:40.608Z,34.67
2022-11-24T00:37:44.358Z,41.43
2022-11-24T00:40:47.988Z,36.33
2022-11-24T00:43:51.748Z,35.17
2022-11-24T00:46:56.924Z,31.90
2022-11-24T00:50:00.719Z,29.07
2022-11-24T00:53:04.566Z,29.43
2022-11-24T00:56:09.028Z,26.23
2022-11-24T00:59:12.700Z,27.80
2022-11-24T01:02:17.920Z,29.37
2022-11-24T01:05:21.837Z,27.20
2022-11-24T01:08:25.598Z,28.97
2022-11-24T01:11:51.448Z,32.07
2022-11-24T01:14:55.147Z,31.87
2022-11-24T01:18:00.338Z,31.73
2022-11-24T01:21:10.022Z,32.63
2022-11-24T01:24:14.478Z,33.13
2022-11-24T01:27:18.044Z,33.27
2022-11-24T01:30:22.347Z,35.70
2022-11-24T01:33:27.662Z,29.47
2022-11-24T01:36:31.299Z,35.83
2022-11-24T01:39:35.019Z,28.87
2022-11-24T01:42:44.160Z,29.80
2022-11-24T01:45:48.967Z,28.43
2022-11-24T01:49:03.391Z,24.53
2022-11-24T01:52:12.668Z,24.83
2022-11-24T01:55:22.148Z,26.60
2022-11-24T01:58:31.539Z,27.97
2022-11-24T02:01:35.871Z,22.90
2022-11-24T02:04:41.904Z,26.83
2022-11-24T02:07:46.390Z,21.77
2022-11-24T02:10:50.252Z,21.30
2022-11-24T02:13:55.662Z,20.23
2022-11-24T02:16:59.350Z,19.33
2022-11-24T02:20:07.220Z,20.67
2022-11-24T02:23:18.742Z,21.57
2022-11-24T02:26:32.157Z,19.80
2022-11-24T02:29:35.828Z,26.07
2022-11-24T02:32:43.348Z,21.20
2022-11-24T02:35:47.078Z,21.13
2022-11-24T02:38:50.689Z,18.60
2022-11-24T02:42:00.488Z,19.00
2022-11-24T02:45:04.716Z,20.53
2022-11-24T02:48:08.855Z,20.93
2022-11-24T02:51:12.426Z,21.30
2022-11-24T02:54:16.055Z,21.27
2022-11-24T02:57:21.140Z,25.53
2022-11-24T03:00:25.028Z,25.87
2022-11-24T03:03:28.917Z,20.27
2022-11-24T03:06:32.717Z,19.57
2022-11-24T03:09:36.388Z,20.00
2022-11-24T03:12:43.408Z,18.00
2022-11-24T03:15:47.217Z,16.23
2022-11-24T03:18:52.437Z,19.37
2022-11-24T03:21:56.124Z,15.03
2022-11-24T03:24:59.798Z,17.37
2022-11-24T03:28:05.042Z,17.93
2022-11-24T03:31:09.660Z,17.50
2022-11-24T03:34:13.385Z,13.83
2022-11-24T03:37:17.328Z,18.77
2022-11-24T03:40:20.972Z,15.13
2022-11-24T03:43:26.166Z,18.13
2022-11-24T03:46:29.844Z,17.00
2022-11-24T03:49:33.703Z,17.17
2022-11-24T03:52:37.388Z,18.30
2022-11-24T03:55:40.927Z,18.17
2022-11-24T03:58:45.969Z,17.93
2022-11-24T04:01:49.808Z,13.53
2022-11-24T04:04:53.508Z,16.80
2022-11-24T04:07:57.757Z,17.27
2022-11-24T04:11:01.436Z,16.00
2022-11-24T04:14:09.203Z,16.33
2022-11-24T04:17:16.843Z,16.13
2022-11-24T04:20:20.481Z,14.97
2022-11-24T04:23:24.470Z,14.17
2022-11-24T04:26:28.111Z,14.53
2022-11-24T04:29:33.269Z,13.93
2022-11-24T04:32:37.478Z,17.43
2022-11-24T04:35:41.259Z,14.20
2022-11-24T04:39:24.246Z,18.13
2022-11-24T04:42:08.689Z,15.03
2022-11-24T04:45:13.865Z,16.17
2022-11-24T04:48:17.499Z,15.57
2022-11-24T04:51:21.238Z,16.33
2022-11-24T04:54:24.807Z,14.50
2022-11-24T04:57:28.631Z,14.80
2022-11-24T05:00:33.819Z,16.13
2022-11-24T05:03:38.165Z,14.63
2022-11-24T05:06:42.450Z,16.70
2022-11-24T05:10:03.640Z,16.53
2022-11-24T05:13:10.814Z,21.60
2022-11-24T05:16:16.018Z,18.43
2022-11-24T05:19:20.116Z,18.10
2022-11-24T05:22:23.880Z,19.67
2022-11-24T05:25:27.540Z,17.73
2022-11-24T05:28:31.929Z,22.97
2022-11-24T05:31:37.219Z,18.27
2022-11-24T05:34:40.917Z,21.07
2022-11-24T05:37:44.621Z,23.67
2022-11-24T05:40:48.332Z,23.80
2022-11-24T05:43:52.059Z,22.37
2022-11-24T05:46:57.307Z,21.23
2022-11-24T05:50:01.119Z,27.43
2022-11-24T05:53:05.949Z,19.33
2022-11-24T05:56:10.239Z,20.17
2022-11-24T05:59:13.948Z,21.60
2022-11-24T06:02:19.453Z,19.10
2022-11-24T06:05:23.419Z,21.03
2022-11-24T06:08:31.105Z,16.70
2022-11-24T06:11:35.533Z,21.30
2022-11-24T06:14:39.478Z,16.40
2022-11-24T06:17:45.238Z,17.87
2022-11-24T06:21:09.720Z,19.17
2022-11-24T06:24:13.359Z,19.10
2022-11-24T06:27:17.098Z,21.03
2022-11-24T06:30:20.928Z,18.50
2022-11-24T06:33:26.121Z,16.10
2022-11-24T06:36:29.909Z,16.80
2022-11-24T06:39:33.668Z,12.37
2022-11-24T06:42:37.998Z,19.90
2022-11-24T06:45:41.822Z,14.80
2022-11-24T06:48:47.350Z,14.17
2022-11-24T06:51:51.073Z,14.07
2022-11-24T06:54:55.139Z,10.50
2022-11-24T06:57:58.827Z,13.37
2022-11-24T07:01:02.533Z,14.27
2022-11-24T07:04:07.869Z,14.47
2022-11-24T07:07:11.703Z,15.83
2022-11-24T07:10:15.707Z,13.53
2022-11-24T07:13:19.488Z,14.17
2022-11-24T07:16:25.167Z,13.17
2022-11-24T07:19:31.410Z,12.53
2022-11-24T07:22:35.721Z,14.07
2022-11-24T07:25:39.409Z,12.23
2022-11-24T07:28:43.118Z,18.30
2022-11-24T07:31:47.363Z,14.67
2022-11-24T07:34:52.690Z,14.43
2022-11-24T07:37:57.132Z,12.07
2022-11-24T07:41:04.519Z,11.70
2022-11-24T07:44:08.759Z,12.43
2022-11-24T07:47:12.428Z,13.33
2022-11-24T07:50:18.199Z,16.90
2022-11-24T07:53:21.860Z,17.97
2022-11-24T07:56:25.601Z,14.17
2022-11-24T07:59:29.390Z,13.43
2022-11-24T08:02:33.197Z,14.10
2022-11-24T08:05:49.138Z,13.33
2022-11-24T08:09:02.147Z,11.00
2022-11-24T08:12:06.208Z,12.93
2022-11-24T08:15:11.576Z,17.77
2022-11-24T08:18:15.348Z,15.60
2022-11-24T08:21:20.898Z,12.77
2022-11-24T08:24:24.739Z,15.43
2022-11-24T08:27:28.430Z,12.43
2022-11-24T08:30:32.448Z,10.67
2022-11-24T08:33:36.971Z,9.57
2022-11-24T08:36:42.138Z,10.17
2022-11-24T08:39:45.839Z,10.83
2022-11-24T08:42:49.529Z,9.33
2022-11-24T08:45:53.274Z,8.80
2022-11-24T08:48:57.241Z,11.63
2022-11-24T08:52:02.491Z,7.47
2022-11-24T08:55:06.719Z,9.87
2022-11-24T08:58:10.499Z,9.40
2022-11-24T09:01:16.730Z,9.57
2022-11-24T09:04:20.642Z,10.80
2022-11-24T09:07:26.222Z,8.97
2022-11-24T09:10:32.340Z,7.23
2022-11-24T09:13:36.760Z,8.13
2022-11-24T09:16:40.543Z,9.13
2022-11-24T09:19:44.258Z,9.67
2022-11-24T09:22:49.366Z,9.20
2022-11-24T09:25:53.038Z,7.10
2022-11-24T09:28:58.338Z,10.20
2022-11-24T09:32:06.561Z,7.67
2022-11-24T09:35:10.940Z,13.80
2022-11-24T09:38:16.128Z,10.77
2022-11-24T09:41:34.738Z,8.53
2022-11-24T09:45:04.559Z,10.47
2022-11-24T09:48:15.986Z,9.50
2022-11-24T09:51:25.161Z,10.43
2022-11-24T09:54:33.058Z,6.33
2022-11-24T09:57:40.728Z,8.30
2022-11-24T10:00:44.641Z,6.90
2022-11-24T10:03:51.710Z,7.93
2022-11-24T10:07:06.680Z,12.87
2022-11-24T10:10:24.274Z,8.50
2022-11-24T10:14:02.041Z,8.57
2022-11-24T10:17:20.107Z,8.00
2022-11-24T10:20:30.799Z,4.20
2022-11-24T10:23:44.169Z,8.60
2022-11-24T10:26:53.309Z,8.30
2022-11-24T10:29:57.955Z,5.37
2022-11-24T10:33:05.378Z,5.90
2022-11-24T10:36:14.728Z,5.93
2022-11-24T10:39:25.008Z,5.47
2022-11-24T10:42:31.958Z,5.07
2022-11-24T10:45:37.800Z,6.43
2022-11-24T10:48:47.330Z,3.43
2022-11-24T10:52:06.219Z,4.97
2022-11-24T10:55:10.768Z,3.83
2022-11-24T10:58:18.628Z,5.37
2022-11-24T11:01:30.196Z,8.23
2022-11-24T11:04:35.977Z,5.87
2022-11-24T11:07:39.775Z,4.40
2022-11-24T11:10:44.609Z,7.90
2022-11-24T11:14:01.672Z,5.70
2022-11-24T11:17:34.211Z,5.33
2022-11-24T11:20:38.010Z,6.33
2022-11-24T11:23:42.244Z,5.63
2022-11-24T11:26:46.320Z,6.40
2022-11-24T11:36:51.481Z,11.37
2022-11-24T11:39:56.359Z,5.83
2022-11-24T11:43:05.260Z,2.50
2022-11-24T11:46:15.752Z,4.57
2022-11-24T11:49:19.516Z,2.23
2022-11-24T11:52:52.898Z,2.47
2022-11-24T11:56:07.880Z,4.97
2022-11-24T11:59:39.408Z,3.40
2022-11-24T12:03:20.262Z,3.73
2022-11-24T12:06:43.208Z,3.63
2022-11-24T12:09:57.280Z,5.60
2022-11-24T12:13:20.116Z,4.43
2022-11-24T12:16:36.247Z,4.20
2022-11-24T12:19:58.598Z,4.73
2022-11-24T12:23:13.029Z,4.13
2022-11-24T12:26:28.546Z,9.07
2022-11-24T12:30:12.191Z,7.17
2022-11-24T12:33:57.917Z,10.30
2022-11-24T12:37:35.038Z,7.80
2022-11-24T12:41:18.158Z,10.10
2022-11-24T12:44:37.446Z,11.03
2022-11-24T12:47:56.227Z,9.00
2022-11-24T12:51:01.169Z,14.73
2022-11-24T12:54:11.497Z,10.93
2022-11-24T12:57:19.797Z,8.90
2022-11-24T13:00:25.009Z,8.67
2022-11-24T13:03:41.679Z,11.70
2022-11-24T13:06:53.387Z,4.63
2022-11-24T13:14:00.015Z,8.37
2022-11-24T13:17:28.510Z,10.00
2022-11-24T13:20:35.178Z,6.23
2022-11-24T13:23:39.199Z,5.17
2022-11-24T13:26:48.977Z,7.17
2022-11-24T13:29:54.027Z,8.33
2022-11-24T13:33:24.255Z,7.67
2022-11-24T13:36:33.750Z,6.60
2022-11-24T13:39:50.667Z,9.70
2022-11-24T13:43:23.827Z,3.67
2022-11-24T13:47:03.525Z,5.77
2022-11-24T13:50:11.929Z,6.80
2022-11-24T13:53:23.749Z,3.67
2022-11-24T13:56:31.097Z,6.63
2022-11-24T13:59:36.958Z,6.60
2022-11-24T14:02:45.751Z,3.77
2022-11-24T14:05:52.447Z,3.23
2022-11-24T14:08:59.289Z,4.50
2022-11-24T14:12:16.493Z,5.40
2022-11-24T14:15:26.607Z,4.43
2022-11-24T14:18:31.618Z,10.10
2022-11-24T14:21:40.668Z,3.03
2022-11-24T14:24:45.660Z,3.30
2022-11-24T14:27:49.418Z,4.77
2022-11-24T14:31:09.086Z,3.40
2022-11-24T14:34:18.468Z,2.87
2022-11-24T14:37:22.187Z,3.00
2022-11-24T14:40:43.403Z,2.53
2022-11-24T14:43:47.171Z,3.30
2022-11-24T14:46:52.702Z,10.50
2022-11-24T14:49:58.314Z,3.97
2022-11-24T14:53:02.405Z,3.17
2022-11-24T14:56:11.030Z,2.90
2022-11-24T14:59:23.357Z,6.00
2022-11-24T15:02:48.768Z,4.97
2022-11-24T15:05:56.270Z,4.00
2022-11-24T15:09:00.091Z,4.70
2022-11-24T15:12:08.781Z,6.37
2022-11-24T15:15:21.499Z,5.43
2022-11-24T15:18:32.249Z,6.50
2022-11-24T15:21:38.269Z,3.20
2022-11-24T15:24:50.978Z,4.27
2022-11-24T15:27:54.808Z,4.87
2022-11-24T15:31:02.268Z,5.60
2022-11-24T15:34:07.988Z,6.23
2022-11-24T15:37:11.951Z,9.63
2022-11-24T15:40:16.518Z,5.67
2022-11-24T15:43:29.578Z,6.07
2022-11-24T15:46:38.445Z,6.30
2022-11-24T15:49:43.677Z,7.27
2022-11-24T15:52:49.078Z,5.23
2022-11-24T15:55:54.249Z,7.37
2022-11-24T15:58:58.328Z,4.57
2022-11-24T16:02:02.215Z,5.20
2022-11-24T16:05:08.686Z,5.40
2022-11-24T16:08:14.568Z,4.10
2022-11-24T16:11:21.321Z,6.83
2022-11-24T16:14:28.208Z,5.77
2022-11-24T16:17:32.040Z,4.03
2022-11-24T16:20:37.586Z,8.33
2022-11-24T16:23:41.828Z,5.30
2022-11-24T16:26:45.571Z,7.80
2022-11-24T16:29:49.328Z,7.37
2022-11-24T16:32:52.981Z,6.57
2022-11-24T16:35:58.978Z,5.70
2022-11-24T16:39:02.692Z,5.43
2022-11-24T16:42:06.638Z,4.43
2022-11-24T16:45:14.091Z,4.37
2022-11-24T16:48:30.242Z,5.70
2022-11-24T16:51:35.422Z,4.67
2022-11-24T16:54:39.212Z,5.60
2022-11-24T16:57:42.950Z,4.23
2022-11-24T17:00:46.623Z,5.63
2022-11-24T17:03:50.358Z,5.93
2022-11-24T17:06:55.559Z,6.60
2022-11-24T17:10:00.834Z,5.63
2022-11-24T17:13:04.668Z,7.13
2022-11-24T17:16:10.643Z,5.30
2022-11-24T17:19:14.438Z,8.73
2022-11-24T17:22:19.668Z,6.13
2022-11-24T17:25:23.430Z,7.00
2022-11-24T17:28:27.162Z,6.87
2022-11-24T17:31:32.905Z,5.33
2022-11-24T17:34:36.788Z,6.67
2022-11-24T17:37:42.299Z,6.83
2022-11-24T17:40:49.161Z,5.60
2022-11-24T17:43:55.662Z,4.60
2022-11-24T17:47:01.138Z,9.13
2022-11-24T17:50:05.079Z,8.03
2022-11-24T17:53:10.286Z,4.93
2022-11-24T17:56:15.967Z,5.73
2022-11-24T17:59:19.765Z,5.00
2022-11-24T18:02:23.610Z,3.60
2022-11-24T18:05:27.276Z,3.80
2022-11-24T18:08:33.988Z,4.07
2022-11-24T18:11:37.938Z,5.27
2022-11-24T18:14:41.678Z,3.40
2022-11-24T18:17:45.486Z,3.60
2022-11-24T18:20:55.609Z,4.43
2022-11-24T18:24:00.879Z,7.53
2022-11-24T18:27:04.629Z,6.20
2022-11-24T18:30:09.750Z,5.80
2022-11-24T18:36:19.875Z,6.03
2022-11-24T18:39:25.028Z,4.87
2022-11-24T18:42:30.699Z,5.03
2022-11-24T18:45:34.485Z,5.33
2022-11-24T18:48:38.240Z,2.97
2022-11-24T18:51:42.289Z,4.37
2022-11-24T18:54:47.499Z,3.57
2022-11-24T18:57:51.318Z,3.73
2022-11-24T19:00:55.624Z,5.13
2022-11-24T19:04:02.016Z,4.77
2022-11-24T19:07:06.028Z,4.93
2022-11-24T19:10:12.409Z,4.63
2022-11-24T19:13:16.330Z,8.37
2022-11-24T19:16:21.456Z,6.73
2022-11-24T19:19:25.239Z,4.53
2022-11-24T19:22:28.914Z,5.23
2022-11-24T19:25:34.115Z,3.60
2022-11-24T19:28:38.735Z,4.73
2022-11-24T19:31:44.102Z,4.00
2022-11-24T19:34:48.088Z,5.10
2022-11-24T19:37:51.875Z,4.80
2022-11-24T19:41:02.066Z,3.77
2022-11-24T19:44:06.187Z,4.67
2022-11-24T19:47:09.895Z,3.07
2022-11-24T19:50:14.146Z,3.27
2022-11-24T19:53:17.967Z,3.80
2022-11-24T19:56:34.417Z,4.17
2022-11-24T19:59:41.886Z,4.57
2022-11-24T20:02:52.538Z,4.83
2022-11-24T20:05:59.745Z,4.10
2022-11-24T20:09:03.498Z,5.23
2022-11-24T20:12:10.042Z,3.47
2022-11-24T20:15:13.738Z,5.17
2022-11-24T20:18:17.507Z,4.10
2022-11-24T20:21:22.928Z,7.27
2022-11-24T20:24:26.729Z,5.00
2022-11-24T20:27:31.839Z,4.70
2022-11-24T20:30:35.579Z,5.37
2022-11-24T20:33:40.807Z,5.03
2022-11-24T20:36:46.977Z,6.43
2022-11-24T20:39:52.308Z,4.57
2022-11-24T20:42:57.468Z,6.10
2022-11-24T20:46:04.194Z,5.37
2022-11-24T20:49:10.389Z,8.43
2022-11-24T20:52:14.114Z,5.40
2022-11-24T20:55:17.968Z,6.07
2022-11-24T20:58:23.128Z,5.90
2022-11-24T21:01:29.021Z,4.67
2022-11-24T21:04:35.614Z,4.37
2022-11-24T21:07:39.558Z,4.30
2022-11-24T21:10:43.269Z,4.67
2022-11-24T21:13:49.478Z,4.60
2022-11-24T21:16:54.027Z,7.00
2022-11-24T21:20:01.004Z,4.60
2022-11-24T21:23:07.209Z,3.87
2022-11-24T21:26:16.562Z,4.43
2022-11-24T21:29:25.891Z,3.57
2022-11-24T21:32:29.678Z,4.17
2022-11-24T21:35:36.716Z,3.87
2022-11-24T21:38:44.879Z,3.03
2022-11-24T21:41:49.178Z,4.23
2022-11-24T21:44:54.326Z,4.03
2022-11-24T21:47:58.219Z,5.70
2022-11-24T21:51:03.166Z,4.83
2022-11-24T21:54:07.297Z,4.70
2022-11-24T21:57:11.058Z,4.43
2022-11-24T22:00:17.558Z,5.37
2022-11-24T22:03:22.206Z,4.23
2022-11-24T22:06:26.288Z,4.53
2022-11-24T22:09:29.984Z,4.40
2022-11-24T22:12:33.668Z,3.80
2022-11-24T22:15:38.678Z,3.67
2022-11-24T22:18:43.908Z,2.50
2022-11-24T22:21:47.687Z,3.17
2022-11-24T22:24:51.428Z,4.00
2022-11-24T22:27:55.189Z,5.60
2022-11-24T22:31:00.412Z,4.50
2022-11-24T22:34:04.169Z,3.43
2022-11-24T22:37:07.948Z,3.93
2022-11-24T22:40:12.236Z,2.83
2022-11-24T22:43:20.230Z,4.80
2022-11-24T22:46:29.730Z,2.77
2022-11-24T22:49:33.349Z,3.73
2022-11-24T22:52:37.720Z,2.93
2022-11-24T22:55:41.518Z,4.33
2022-11-24T22:58:45.688Z,3.33
2022-11-24T23:01:50.806Z,4.47
2022-11-24T23:04:54.507Z,2.30
2022-11-24T23:07:58.188Z,2.60
2022-11-24T23:11:03.020Z,3.57
2022-11-24T23:14:08.100Z,2.53
2022-11-24T23:17:13.250Z,3.33
2022-11-24T23:20:17.240Z,3.03
2022-11-24T23:23:20.985Z,2.73
2022-11-24T23:26:26.873Z,2.50
2022-11-24T23:29:30.470Z,2.33
2022-11-24T23:32:35.580Z,2.70
2022-11-24T23:35:39.321Z,2.47
2022-11-24T23:38:43.530Z,2.43
2022-11-24T23:41:49.990Z,2.37
2022-11-24T23:44:56.480Z,2.80
2022-11-24T23:48:02.561Z,2.10
2022-11-24T23:51:08.659Z,5.10
2022-11-24T23:54:12.514Z,6.07
2022-11-24T23:57:16.332Z,1.97
